createdAt,value
2023-02-23T00:00:17.066Z,56.00
2023-02-23T00:01:17.374Z,58.10
2023-02-23T00:02:17.053Z,55.90
2023-02-23T00:03:17.024Z,54.20
2023-02-23T00:04:16.963Z,57.10
2023-02-23T00:05:16.941Z,56.30
2023-02-23T00:06:16.923Z,55.30
2023-02-23T00:07:16.899Z,54.70
2023-02-23T00:08:16.868Z,55.10
2023-02-23T00:09:16.848Z,56.20
2023-02-23T00:10:16.820Z,57.30
2023-02-23T00:11:17.229Z,55.90
2023-02-23T00:12:16.773Z,56.50
2023-02-23T00:13:16.761Z,56.00
2023-02-23T00:14:16.729Z,54.90
2023-02-23T00:15:16.701Z,56.40
2023-02-23T00:16:16.755Z,57.50
2023-02-23T00:17:16.651Z,59.50
2023-02-23T00:18:16.623Z,57.70
2023-02-23T00:19:16.678Z,57.00
2023-02-23T00:20:16.580Z,56.60
2023-02-23T00:21:16.951Z,55.40
2023-02-23T00:22:16.525Z,56.90
2023-02-23T00:23:16.515Z,57.00
2023-02-23T00:24:16.477Z,56.80
2023-02-23T00:25:16.450Z,58.20
2023-02-23T00:26:16.434Z,58.00
2023-02-23T00:27:16.431Z,56.70
2023-02-23T00:28:16.387Z,58.30
2023-02-23T00:29:16.354Z,56.30
2023-02-23T00:30:16.343Z,56.90
2023-02-23T00:31:16.654Z,56.70
2023-02-23T00:32:16.413Z,55.70
2023-02-23T00:33:16.265Z,55.80
2023-02-23T00:34:16.249Z,55.90
2023-02-23T00:35:16.213Z,55.80
2023-02-23T00:36:16.190Z,54.90
2023-02-23T00:37:16.166Z,55.20
2023-02-23T00:38:16.146Z,57.80
2023-02-23T00:39:16.119Z,58.00
2023-02-23T00:40:16.097Z,57.20
2023-02-23T00:41:16.269Z,55.90
2023-02-23T00:42:16.044Z,57.30
2023-02-23T00:43:16.040Z,56.40
2023-02-23T00:44:15.998Z,56.50
2023-02-23T00:45:15.970Z,58.70
2023-02-23T00:46:15.966Z,57.50
2023-02-23T00:47:15.931Z,58.00
2023-02-23T00:48:15.902Z,53.20
2023-02-23T00:49:15.868Z,53.10
2023-02-23T00:50:15.852Z,54.30
2023-02-23T00:51:15.914Z,55.90
2023-02-23T00:52:15.806Z,54.40
2023-02-23T00:53:15.771Z,55.20
2023-02-23T00:54:15.754Z,56.00
2023-02-23T00:55:15.742Z,56.60
2023-02-23T00:56:15.702Z,56.40
2023-02-23T00:57:15.676Z,56.50
2023-02-23T00:58:15.659Z,57.90
2023-02-23T00:59:15.650Z,57.20
2023-02-23T01:00:15.610Z,56.90
2023-02-23T01:01:15.877Z,58.00
2023-02-23T01:02:15.633Z,59.30
2023-02-23T01:03:15.530Z,58.30
2023-02-23T01:04:15.505Z,57.40
2023-02-23T01:05:15.474Z,58.00
2023-02-23T01:06:15.475Z,58.70
2023-02-23T01:07:15.427Z,58.90
2023-02-23T01:08:15.408Z,59.90
2023-02-23T01:09:15.378Z,59.60
2023-02-23T01:10:15.356Z,58.20
2023-02-23T01:11:15.335Z,58.90
2023-02-23T01:12:15.312Z,56.80
2023-02-23T01:13:15.279Z,56.30
2023-02-23T01:14:15.257Z,57.70
2023-02-23T01:15:15.251Z,58.70
2023-02-23T01:16:15.209Z,59.70
2023-02-23T01:17:15.177Z,60.10
2023-02-23T01:18:15.165Z,61.20
2023-02-23T01:19:15.127Z,59.40
2023-02-23T01:20:15.115Z,59.50
2023-02-23T01:21:15.086Z,56.10
2023-02-23T01:22:15.060Z,57.30
2023-02-23T01:23:15.032Z,60.50
2023-02-23T01:24:15.013Z,60.10
2023-02-23T01:25:14.983Z,66.30
2023-02-23T01:26:14.958Z,69.20
2023-02-23T01:27:14.931Z,68.80
2023-02-23T01:28:14.910Z,68.90
2023-02-23T01:29:14.877Z,72.10
2023-02-23T01:30:14.916Z,72.50
2023-02-23T01:31:15.002Z,84.40
2023-02-23T01:32:15.037Z,80.00
2023-02-23T01:33:14.784Z,83.80
2023-02-23T01:34:14.763Z,83.20
2023-02-23T01:35:14.742Z,88.80
2023-02-23T01:36:14.720Z,93.30
2023-02-23T01:37:14.685Z,87.70
2023-02-23T01:38:14.672Z,89.30
2023-02-23T01:39:14.640Z,89.20
2023-02-23T01:40:14.624Z,86.70
2023-02-23T01:41:14.586Z,88.80
2023-02-23T01:42:14.596Z,88.00
2023-02-23T01:43:14.547Z,86.20
2023-02-23T01:44:14.543Z,87.00
2023-02-23T01:45:14.498Z,85.20
2023-02-23T01:46:14.520Z,89.50
2023-02-23T01:47:14.466Z,89.50
2023-02-23T01:48:14.416Z,88.40
2023-02-23T01:49:14.395Z,87.90
2023-02-23T01:50:14.375Z,84.00
2023-02-23T01:51:14.343Z,88.30
2023-02-23T01:52:14.319Z,88.40
2023-02-23T01:53:14.293Z,90.00
2023-02-23T01:54:14.291Z,91.40
2023-02-23T01:55:14.253Z,89.90
2023-02-23T01:56:14.221Z,89.30
2023-02-23T01:57:14.209Z,93.10
2023-02-23T01:58:14.179Z,88.30
2023-02-23T01:59:14.148Z,90.10
2023-02-23T02:00:14.130Z,89.20
2023-02-23T02:01:14.136Z,89.00
2023-02-23T02:02:14.076Z,87.00
2023-02-23T02:03:14.071Z,89.10
2023-02-23T02:04:14.025Z,87.80
2023-02-23T02:05:14.069Z,88.00
2023-02-23T02:06:13.982Z,82.80
2023-02-23T02:07:13.946Z,83.10
2023-02-23T02:08:13.925Z,87.00
2023-02-23T02:09:13.895Z,86.20
2023-02-23T02:10:13.883Z,83.50
2023-02-23T02:11:13.852Z,82.80
2023-02-23T02:12:13.832Z,86.80
2023-02-23T02:13:13.802Z,82.50
2023-02-23T02:14:13.799Z,83.70
2023-02-23T02:15:13.756Z,80.80
2023-02-23T02:16:13.787Z,78.80
2023-02-23T02:17:13.705Z,76.90
2023-02-23T02:18:13.679Z,79.10
2023-02-23T02:19:13.672Z,76.40
2023-02-23T02:20:13.633Z,81.70
2023-02-23T02:21:13.605Z,78.10
2023-02-23T02:22:13.587Z,80.40
2023-02-23T02:23:13.575Z,80.40
2023-02-23T02:24:13.545Z,80.50
2023-02-23T02:25:13.592Z,80.80
2023-02-23T02:26:13.483Z,83.80
2023-02-23T02:27:13.466Z,77.70
2023-02-23T02:28:13.437Z,72.10
2023-02-23T02:29:13.409Z,74.20
2023-02-23T02:30:13.387Z,73.30
2023-02-23T02:31:13.462Z,76.00
2023-02-23T02:32:13.448Z,75.50
2023-02-23T02:33:13.310Z,71.40
2023-02-23T02:34:13.292Z,69.30
2023-02-23T02:35:13.292Z,70.60
2023-02-23T02:36:13.239Z,71.70
2023-02-23T02:37:13.215Z,71.10
2023-02-23T02:38:13.189Z,78.40
2023-02-23T02:39:13.169Z,74.30
2023-02-23T02:40:13.148Z,75.20
2023-02-23T02:41:13.130Z,76.20
2023-02-23T02:42:13.091Z,76.00
2023-02-23T02:43:13.062Z,76.00
2023-02-23T02:44:13.050Z,76.30
2023-02-23T02:45:13.016Z,78.50
2023-02-23T02:46:13.056Z,73.40
2023-02-23T02:47:12.972Z,76.10
2023-02-23T02:48:12.990Z,73.00
2023-02-23T02:49:12.922Z,74.10
2023-02-23T02:50:12.907Z,80.80
2023-02-23T02:51:12.955Z,78.70
2023-02-23T02:52:12.852Z,79.10
2023-02-23T02:53:12.821Z,78.10
2023-02-23T02:54:12.803Z,80.50
2023-02-23T02:55:12.779Z,80.50
2023-02-23T02:56:12.755Z,84.80
2023-02-23T02:57:12.724Z,82.00
2023-02-23T02:58:12.707Z,84.80
2023-02-23T02:59:12.678Z,85.10
2023-02-23T03:00:12.668Z,80.70
2023-02-23T03:01:12.647Z,84.30
2023-02-23T03:02:12.612Z,85.70
2023-02-23T03:03:12.586Z,86.10
2023-02-23T03:04:12.559Z,83.60
2023-02-23T03:05:12.605Z,86.90
2023-02-23T03:06:12.507Z,83.20
2023-02-23T03:07:12.508Z,81.90
2023-02-23T03:08:12.469Z,87.60
2023-02-23T03:09:12.433Z,79.10
2023-02-23T03:10:12.413Z,87.30
2023-02-23T03:11:12.384Z,89.40
2023-02-23T03:12:12.366Z,89.70
2023-02-23T03:13:12.333Z,88.40
2023-02-23T03:14:12.310Z,83.50
2023-02-23T03:15:12.290Z,89.30
2023-02-23T03:16:12.278Z,90.30
2023-02-23T03:17:12.240Z,88.60
2023-02-23T03:18:12.214Z,83.50
2023-02-23T03:19:12.186Z,86.30
2023-02-23T03:20:12.167Z,87.50
2023-02-23T03:21:12.138Z,93.40
2023-02-23T03:22:12.118Z,91.90
2023-02-23T03:23:12.113Z,88.90
2023-02-23T03:24:12.070Z,86.60
2023-02-23T03:25:12.039Z,87.40
2023-02-23T03:26:12.016Z,91.40
2023-02-23T03:27:11.993Z,85.80
2023-02-23T03:28:11.967Z,85.10
2023-02-23T03:29:11.951Z,83.90
2023-02-23T03:30:11.924Z,90.60
2023-02-23T03:31:11.903Z,86.30
2023-02-23T03:32:11.969Z,86.30
2023-02-23T03:33:11.840Z,87.70
2023-02-23T03:34:11.829Z,90.60
2023-02-23T03:35:11.804Z,88.10
2023-02-23T03:36:11.773Z,86.30
2023-02-23T03:37:11.748Z,84.90
2023-02-23T03:38:11.722Z,88.10
2023-02-23T03:39:11.712Z,87.70
2023-02-23T03:40:11.675Z,88.40
2023-02-23T03:41:11.648Z,84.80
2023-02-23T03:42:11.625Z,87.20
2023-02-23T03:43:11.595Z,90.50
2023-02-23T03:44:11.576Z,85.20
2023-02-23T03:45:11.553Z,85.40
2023-02-23T03:46:11.528Z,86.90
2023-02-23T03:47:11.504Z,89.80
2023-02-23T03:48:11.475Z,90.10
2023-02-23T03:49:11.450Z,95.10
2023-02-23T03:50:11.425Z,90.40
2023-02-23T03:51:11.443Z,90.00
2023-02-23T03:52:11.380Z,93.70
2023-02-23T03:53:11.348Z,87.20
2023-02-23T03:54:11.334Z,87.90
2023-02-23T03:55:11.334Z,95.20
2023-02-23T03:56:11.281Z,93.70
2023-02-23T03:57:11.252Z,90.00
2023-02-23T03:58:11.236Z,88.70
2023-02-23T03:59:11.201Z,84.70
2023-02-23T04:00:11.199Z,92.10
2023-02-23T04:01:11.156Z,84.30
2023-02-23T04:02:11.147Z,80.80
2023-02-23T04:03:11.137Z,77.20
2023-02-23T04:04:11.086Z,87.30
2023-02-23T04:05:11.053Z,86.70
2023-02-23T04:06:11.037Z,86.70
2023-02-23T04:07:11.013Z,83.00
2023-02-23T04:08:10.980Z,83.70
2023-02-23T04:09:10.951Z,84.70
2023-02-23T04:10:10.929Z,80.80
2023-02-23T04:11:10.926Z,74.70
2023-02-23T04:12:10.887Z,77.80
2023-02-23T04:13:10.860Z,75.70
2023-02-23T04:14:10.848Z,73.60
2023-02-23T04:15:10.828Z,75.00
2023-02-23T04:16:10.843Z,76.90
2023-02-23T04:17:10.760Z,73.40
2023-02-23T04:18:10.732Z,67.10
2023-02-23T04:19:10.706Z,70.60
2023-02-23T04:20:10.684Z,71.50
2023-02-23T04:21:10.728Z,66.00
2023-02-23T04:22:10.637Z,68.70
2023-02-23T04:23:10.620Z,72.30
2023-02-23T04:24:10.592Z,69.40
2023-02-23T04:25:10.562Z,74.80
2023-02-23T04:26:10.540Z,74.10
2023-02-23T04:27:10.536Z,73.50
2023-02-23T04:28:10.508Z,76.70
2023-02-23T04:29:10.463Z,79.90
2023-02-23T04:30:10.439Z,84.40
2023-02-23T04:31:10.410Z,88.50
2023-02-23T04:32:10.455Z,86.80
2023-02-23T04:33:10.364Z,81.10
2023-02-23T04:34:10.345Z,80.50
2023-02-23T04:35:10.319Z,82.40
2023-02-23T04:36:10.295Z,78.30
2023-02-23T04:37:10.269Z,71.50
2023-02-23T04:38:10.251Z,72.00
2023-02-23T04:39:10.231Z,70.90
2023-02-23T04:40:10.202Z,71.70
2023-02-23T04:41:10.169Z,79.80
2023-02-23T04:42:10.159Z,84.00
2023-02-23T04:43:10.149Z,87.30
2023-02-23T04:44:10.097Z,87.80
2023-02-23T04:45:10.071Z,86.50
2023-02-23T04:46:10.085Z,86.60
2023-02-23T04:47:10.035Z,89.20
2023-02-23T04:48:09.995Z,86.70
2023-02-23T04:49:09.978Z,86.40
2023-02-23T04:50:09.951Z,86.70
2023-02-23T04:51:09.930Z,88.00
2023-02-23T04:52:09.899Z,89.70
2023-02-23T04:53:09.878Z,88.20
2023-02-23T04:54:09.857Z,92.70
2023-02-23T04:55:09.827Z,89.30
2023-02-23T04:56:09.798Z,87.60
2023-02-23T04:57:09.782Z,87.40
2023-02-23T04:58:09.756Z,83.60
2023-02-23T04:59:09.754Z,83.80
2023-02-23T05:00:09.704Z,81.40
2023-02-23T05:01:09.941Z,74.30
2023-02-23T05:02:09.651Z,73.70
2023-02-23T05:03:09.631Z,73.30
2023-02-23T05:04:09.604Z,70.10
2023-02-23T05:05:09.705Z,74.00
2023-02-23T05:06:09.552Z,72.30
2023-02-23T05:07:09.539Z,72.40
2023-02-23T05:08:09.511Z,72.90
2023-02-23T05:09:09.487Z,72.50
2023-02-23T05:10:09.457Z,74.60
2023-02-23T05:11:09.432Z,70.30
2023-02-23T05:12:09.411Z,76.10
2023-02-23T05:13:09.383Z,71.70
2023-02-23T05:14:09.359Z,75.00
2023-02-23T05:15:09.450Z,74.30
2023-02-23T05:16:09.409Z,80.80
2023-02-23T05:17:09.282Z,76.50
2023-02-23T05:18:09.257Z,75.20
2023-02-23T05:19:09.235Z,76.90
2023-02-23T05:20:09.214Z,83.00
2023-02-23T05:21:09.199Z,82.10
2023-02-23T05:22:09.168Z,87.60
2023-02-23T05:23:09.140Z,84.70
2023-02-23T05:24:09.111Z,82.90
2023-02-23T05:25:09.089Z,83.90
2023-02-23T05:26:09.059Z,84.00
2023-02-23T05:27:09.044Z,89.40
2023-02-23T05:28:09.014Z,86.30
2023-02-23T05:29:08.999Z,85.90
2023-02-23T05:30:08.966Z,89.70
2023-02-23T05:31:09.097Z,87.40
2023-02-23T05:32:09.067Z,88.00
2023-02-23T05:33:08.890Z,89.30
2023-02-23T05:34:08.877Z,87.50
2023-02-23T05:35:08.861Z,84.10
2023-02-23T05:36:08.818Z,81.80
2023-02-23T05:37:08.795Z,82.60
2023-02-23T05:38:08.762Z,83.00
2023-02-23T05:39:08.750Z,83.80
2023-02-23T05:40:08.733Z,83.60
2023-02-23T05:41:08.696Z,79.80
2023-02-23T05:42:08.664Z,78.20
2023-02-23T05:43:08.649Z,81.00
2023-02-23T05:44:08.614Z,87.40
2023-02-23T05:45:08.599Z,85.30
2023-02-23T05:46:08.611Z,86.30
2023-02-23T05:47:08.689Z,84.90
2023-02-23T05:48:08.513Z,89.50
2023-02-23T05:49:08.495Z,81.60
2023-02-23T05:50:08.473Z,82.90
2023-02-23T05:51:08.451Z,84.70
2023-02-23T05:52:08.434Z,87.80
2023-02-23T05:53:08.393Z,81.50
2023-02-23T05:54:08.368Z,77.70
2023-02-23T05:55:08.353Z,84.40
2023-02-23T05:56:08.318Z,75.30
2023-02-23T05:57:08.316Z,77.60
2023-02-23T05:58:08.268Z,78.40
2023-02-23T05:59:08.247Z,69.90
2023-02-23T06:00:08.232Z,69.70
2023-02-23T06:01:08.197Z,71.70
2023-02-23T06:02:08.181Z,72.80
2023-02-23T06:03:08.177Z,74.60
2023-02-23T06:04:08.239Z,76.60
2023-02-23T06:05:08.101Z,73.40
2023-02-23T06:06:08.092Z,75.00
2023-02-23T06:07:08.054Z,76.30
2023-02-23T06:08:08.026Z,77.90
2023-02-23T06:09:08.003Z,72.50
2023-02-23T06:10:07.980Z,79.10
2023-02-23T06:11:07.956Z,77.80
2023-02-23T06:12:07.936Z,81.40
2023-02-23T06:13:07.906Z,84.10
2023-02-23T06:14:07.894Z,89.40
2023-02-23T06:15:07.856Z,84.90
2023-02-23T06:16:07.992Z,80.10
2023-02-23T06:17:07.856Z,83.30
2023-02-23T06:18:07.777Z,84.60
2023-02-23T06:19:07.871Z,85.90
2023-02-23T06:20:07.733Z,84.70
2023-02-23T06:21:07.709Z,84.90
2023-02-23T06:22:07.702Z,89.10
2023-02-23T06:23:07.679Z,90.70
2023-02-23T06:24:07.635Z,87.90
2023-02-23T06:25:07.611Z,89.70
2023-02-23T06:26:07.586Z,94.90
2023-02-23T06:27:07.555Z,92.10
2023-02-23T06:28:07.545Z,87.60
2023-02-23T06:29:07.510Z,85.20
2023-02-23T06:30:07.479Z,89.00
2023-02-23T06:31:07.720Z,92.90
2023-02-23T06:32:07.541Z,94.60
2023-02-23T06:33:07.412Z,91.90
2023-02-23T06:34:07.394Z,87.00
2023-02-23T06:35:07.382Z,90.50
2023-02-23T06:36:07.335Z,89.50
2023-02-23T06:37:09.254Z,86.40
2023-02-23T06:38:07.288Z,88.80
2023-02-23T06:39:07.280Z,91.70
2023-02-23T06:40:07.242Z,86.20
2023-02-23T06:41:07.216Z,86.90
2023-02-23T06:42:07.187Z,85.20
2023-02-23T06:43:07.165Z,88.80
2023-02-23T06:44:07.145Z,89.10
2023-02-23T06:45:07.114Z,90.80
2023-02-23T06:46:07.082Z,87.80
2023-02-23T06:47:07.069Z,91.30
2023-02-23T06:48:07.033Z,86.30
2023-02-23T06:49:07.020Z,83.20
2023-02-23T06:50:06.995Z,91.60
2023-02-23T06:51:06.989Z,97.20
2023-02-23T06:52:06.940Z,107.40
2023-02-23T06:53:06.917Z,109.70
2023-02-23T06:54:06.890Z,109.80
2023-02-23T06:55:06.871Z,108.60
2023-02-23T06:56:06.837Z,112.00
2023-02-23T06:57:06.820Z,112.80
2023-02-23T06:58:06.796Z,112.80
2023-02-23T06:59:06.770Z,108.00
2023-02-23T07:00:06.755Z,110.80
2023-02-23T07:01:06.724Z,112.20
2023-02-23T07:02:06.729Z,107.60
2023-02-23T07:03:06.670Z,106.50
2023-02-23T07:04:06.724Z,111.40
2023-02-23T07:05:06.618Z,113.50
2023-02-23T07:06:06.592Z,116.80
2023-02-23T07:07:06.686Z,114.10
2023-02-23T07:08:06.538Z,117.20
2023-02-23T07:09:06.519Z,110.40
2023-02-23T07:10:06.488Z,113.50
2023-02-23T07:11:06.473Z,110.40
2023-02-23T07:12:06.438Z,111.80
2023-02-23T07:13:06.414Z,109.60
2023-02-23T07:14:07.728Z,108.00
2023-02-23T07:15:06.366Z,112.60
2023-02-23T07:16:06.381Z,108.90
2023-02-23T07:17:06.316Z,115.00
2023-02-23T07:18:06.286Z,111.50
2023-02-23T07:19:06.278Z,105.80
2023-02-23T07:20:06.250Z,106.50
2023-02-23T07:21:06.232Z,109.20
2023-02-23T07:22:06.204Z,115.30
2023-02-23T07:23:06.196Z,107.50
2023-02-23T07:24:06.147Z,113.50
2023-02-23T07:25:06.116Z,114.80
2023-02-23T07:26:06.087Z,111.10
2023-02-23T07:27:06.082Z,115.80
2023-02-23T07:28:06.034Z,113.50
2023-02-23T07:29:06.025Z,116.50
2023-02-23T07:30:05.987Z,111.60
2023-02-23T07:31:06.107Z,113.90
2023-02-23T07:32:06.129Z,114.50
2023-02-23T07:33:05.918Z,111.50
2023-02-23T07:34:05.887Z,112.10
2023-02-23T07:35:05.867Z,110.90
2023-02-23T07:36:05.841Z,106.50
2023-02-23T07:37:05.816Z,110.80
2023-02-23T07:38:05.796Z,114.30
2023-02-23T07:39:05.812Z,115.30
2023-02-23T07:40:05.758Z,115.20
2023-02-23T07:41:05.722Z,122.70
2023-02-23T07:42:05.697Z,112.90
2023-02-23T07:43:05.673Z,114.70
2023-02-23T07:44:05.646Z,117.40
2023-02-23T07:45:05.623Z,114.20
2023-02-23T07:46:05.646Z,115.60
2023-02-23T07:47:05.576Z,118.70
2023-02-23T07:48:05.547Z,112.50
2023-02-23T07:49:05.522Z,112.00
2023-02-23T07:50:05.492Z,116.40
2023-02-23T07:51:05.480Z,110.70
2023-02-23T07:52:05.465Z,114.60
2023-02-23T07:53:05.428Z,119.40
2023-02-23T07:54:05.418Z,116.20
2023-02-23T07:55:05.396Z,117.10
2023-02-23T07:56:05.346Z,113.90
2023-02-23T07:57:05.348Z,119.20
2023-02-23T07:58:05.307Z,118.10
2023-02-23T07:59:05.296Z,116.80
2023-02-23T08:00:05.251Z,114.00
2023-02-23T08:01:05.260Z,120.70
2023-02-23T08:02:05.204Z,131.00
2023-02-23T08:03:05.178Z,117.90
2023-02-23T08:04:05.213Z,117.90
2023-02-23T08:05:05.129Z,122.60
2023-02-23T08:06:05.104Z,117.90
2023-02-23T08:07:05.079Z,119.00
2023-02-23T08:08:05.051Z,116.70
2023-02-23T08:09:05.037Z,123.00
2023-02-23T08:10:04.999Z,117.30
2023-02-23T08:11:05.000Z,112.40
2023-02-23T08:12:04.952Z,118.10
2023-02-23T08:13:05.001Z,124.70
2023-02-23T08:14:04.905Z,121.20
2023-02-23T08:15:04.878Z,125.00
2023-02-23T08:16:04.843Z,121.70
2023-02-23T08:17:04.862Z,123.40
2023-02-23T08:18:04.792Z,123.10
2023-02-23T08:19:04.772Z,129.90
2023-02-23T08:20:04.742Z,130.60
2023-02-23T08:21:04.751Z,130.80
2023-02-23T08:22:04.717Z,127.30
2023-02-23T08:23:04.669Z,124.20
2023-02-23T08:24:04.660Z,124.80
2023-02-23T08:25:04.628Z,118.70
2023-02-23T08:26:04.592Z,119.20
2023-02-23T08:27:04.609Z,122.20
2023-02-23T08:28:04.742Z,125.30
2023-02-23T08:29:04.519Z,124.40
2023-02-23T08:30:04.491Z,116.50
2023-02-23T08:31:04.563Z,121.00
2023-02-23T08:32:04.597Z,117.10
2023-02-23T08:33:04.423Z,119.20
2023-02-23T08:34:04.390Z,119.90
2023-02-23T08:35:04.373Z,113.20
2023-02-23T08:36:04.353Z,114.00
2023-02-23T08:37:04.327Z,111.90
2023-02-23T08:38:04.297Z,108.70
2023-02-23T08:39:04.276Z,112.60
2023-02-23T08:40:04.244Z,109.40
2023-02-23T08:41:04.229Z,111.80
2023-02-23T08:42:04.195Z,110.40
2023-02-23T08:43:04.189Z,111.50
2023-02-23T08:44:04.137Z,109.80
2023-02-23T08:45:04.116Z,105.20
2023-02-23T08:46:04.119Z,101.80
2023-02-23T08:47:04.071Z,107.80
2023-02-23T08:48:04.044Z,102.70
2023-02-23T08:49:04.016Z,103.40
2023-02-23T08:50:03.987Z,109.30
2023-02-23T08:51:03.965Z,101.60
2023-02-23T08:52:03.954Z,105.50
2023-02-23T08:53:03.907Z,99.60
2023-02-23T08:54:03.902Z,101.40
2023-02-23T08:55:03.860Z,111.10
2023-02-23T08:56:03.849Z,105.80
2023-02-23T08:57:03.812Z,103.30
2023-02-23T08:58:03.790Z,105.80
2023-02-23T08:59:03.785Z,108.80
2023-02-23T09:00:03.735Z,106.60
2023-02-23T09:01:03.800Z,102.50
2023-02-23T09:02:03.688Z,101.70
2023-02-23T09:03:03.661Z,103.00
2023-02-23T09:04:03.647Z,103.00
2023-02-23T09:05:03.678Z,104.80
2023-02-23T09:06:03.588Z,102.60
2023-02-23T09:07:03.558Z,103.30
2023-02-23T09:08:03.544Z,103.80
2023-02-23T09:09:03.502Z,106.50
2023-02-23T09:10:03.481Z,107.00
2023-02-23T09:11:03.463Z,101.80
2023-02-23T09:12:03.470Z,101.60
2023-02-23T09:13:03.407Z,103.50
2023-02-23T09:14:03.381Z,103.30
2023-02-23T09:15:03.391Z,102.50
2023-02-23T09:16:03.368Z,105.30
2023-02-23T09:17:03.301Z,106.10
2023-02-23T09:18:03.281Z,104.70
2023-02-23T09:19:03.257Z,102.60
2023-02-23T09:20:03.233Z,103.80
2023-02-23T09:21:03.200Z,104.60
2023-02-23T09:22:03.179Z,101.10
2023-02-23T09:23:03.153Z,104.40
2023-02-23T09:24:03.132Z,103.50
2023-02-23T09:25:03.103Z,97.50
2023-02-23T09:26:03.085Z,101.50
2023-02-23T09:27:03.057Z,99.90
2023-02-23T09:28:03.035Z,101.60
2023-02-23T09:29:03.004Z,94.20
2023-02-23T09:30:02.988Z,100.10
2023-02-23T09:31:03.085Z,98.30
2023-02-23T09:32:03.019Z,95.80
2023-02-23T09:33:02.912Z,101.50
2023-02-23T09:34:02.884Z,97.40
2023-02-23T09:35:02.853Z,99.90
2023-02-23T09:36:02.834Z,100.50
2023-02-23T09:37:02.800Z,100.50
2023-02-23T09:38:02.777Z,94.50
2023-02-23T09:39:02.754Z,96.80
2023-02-23T09:40:02.732Z,98.30
2023-02-23T09:41:02.717Z,93.40
2023-02-23T09:42:02.680Z,97.00
2023-02-23T09:43:02.657Z,100.90
2023-02-23T09:44:02.641Z,91.30
2023-02-23T09:45:02.605Z,98.80
2023-02-23T09:46:02.604Z,105.70
2023-02-23T09:47:02.582Z,100.10
2023-02-23T09:48:02.530Z,99.90
2023-02-23T09:49:02.514Z,98.20
2023-02-23T09:50:02.482Z,104.60
2023-02-23T09:51:02.459Z,95.60
2023-02-23T09:52:02.431Z,93.70
2023-02-23T09:53:03.204Z,95.20
2023-02-23T09:54:02.381Z,101.20
2023-02-23T09:55:02.349Z,103.80
2023-02-23T09:56:02.342Z,92.60
2023-02-23T09:57:02.307Z,92.40
2023-02-23T09:58:02.279Z,98.10
2023-02-23T09:59:02.267Z,86.50
2023-02-23T10:00:02.241Z,87.30
2023-02-23T10:01:02.209Z,88.10
2023-02-23T10:02:02.192Z,86.60
2023-02-23T10:03:02.225Z,89.80
2023-02-23T10:04:02.149Z,88.60
2023-02-23T10:05:02.169Z,90.20
2023-02-23T10:06:02.080Z,92.40
2023-02-23T10:07:02.061Z,90.10
2023-02-23T10:08:02.035Z,91.20
2023-02-23T10:09:02.011Z,81.50
2023-02-23T10:10:02.044Z,85.50
2023-02-23T10:11:01.953Z,88.10
2023-02-23T10:12:01.942Z,84.50
2023-02-23T10:13:01.904Z,82.70
2023-02-23T10:14:01.885Z,82.10
2023-02-23T10:15:01.858Z,82.30
2023-02-23T10:16:01.860Z,77.40
2023-02-23T10:17:01.807Z,80.70
2023-02-23T10:18:03.260Z,79.70
2023-02-23T10:19:01.790Z,77.40
2023-02-23T10:20:01.752Z,78.80
2023-02-23T10:21:01.709Z,79.60
2023-02-23T10:22:01.694Z,79.40
2023-02-23T10:23:01.663Z,77.70
2023-02-23T10:24:01.638Z,78.50
2023-02-23T10:25:01.605Z,71.90
2023-02-23T10:26:01.579Z,74.40
2023-02-23T10:27:01.553Z,77.30
2023-02-23T10:28:01.532Z,75.20
2023-02-23T10:29:01.506Z,78.60
2023-02-23T10:30:01.484Z,78.30
2023-02-23T10:31:01.597Z,78.50
2023-02-23T10:32:01.571Z,74.10
2023-02-23T10:33:01.404Z,74.10
2023-02-23T10:34:01.385Z,78.30
2023-02-23T10:35:01.382Z,80.20
2023-02-23T10:36:12.973Z,73.60
2023-02-23T10:37:01.316Z,75.00
2023-02-23T10:38:01.290Z,71.30
2023-02-23T10:39:01.255Z,76.00
2023-02-23T10:40:01.232Z,75.10
2023-02-23T10:41:01.209Z,70.10
2023-02-23T10:42:01.182Z,72.20
2023-02-23T10:43:01.165Z,73.10
2023-02-23T10:44:15.405Z,75.20
2023-02-23T10:45:01.109Z,69.60
2023-02-23T10:46:01.092Z,72.00
2023-02-23T10:47:01.049Z,75.20
2023-02-23T10:48:01.030Z,67.60
2023-02-23T10:49:01.001Z,68.30
2023-02-23T10:50:00.981Z,72.80
2023-02-23T10:51:00.982Z,72.70
2023-02-23T10:52:00.932Z,65.90
2023-02-23T10:53:00.901Z,72.70
2023-02-23T10:54:07.809Z,70.10
2023-02-23T10:55:00.882Z,68.80
2023-02-23T10:56:00.829Z,72.00
2023-02-23T10:57:00.814Z,72.20
2023-02-23T10:58:00.790Z,67.00
2023-02-23T10:59:00.751Z,64.50
2023-02-23T11:00:00.729Z,61.00
2023-02-23T11:01:00.701Z,60.20
2023-02-23T11:02:02.617Z,64.80
2023-02-23T11:03:00.653Z,62.20
2023-02-23T11:04:05.919Z,58.90
2023-02-23T11:05:00.678Z,60.50
2023-02-23T11:06:00.584Z,60.60
2023-02-23T11:07:00.589Z,58.70
2023-02-23T11:08:00.531Z,63.10
2023-02-23T11:09:01.922Z,66.30
2023-02-23T11:10:00.475Z,60.80
2023-02-23T11:11:00.448Z,61.70
2023-02-23T11:12:00.439Z,65.00
2023-02-23T11:13:00.401Z,56.30
2023-02-23T11:14:00.375Z,62.60
2023-02-23T11:15:00.345Z,65.70
2023-02-23T11:16:00.385Z,65.90
2023-02-23T11:17:00.298Z,64.90
2023-02-23T11:18:00.277Z,71.10
2023-02-23T11:19:00.258Z,70.00
2023-02-23T11:20:00.237Z,66.80
2023-02-23T11:21:00.202Z,69.00
2023-02-23T11:22:00.171Z,69.50
2023-02-23T11:23:06.560Z,72.10
2023-02-23T11:24:00.126Z,71.40
2023-02-23T11:25:00.104Z,66.80
2023-02-23T11:26:00.168Z,66.70
2023-02-23T11:27:00.056Z,63.50
2023-02-23T11:28:00.041Z,66.60
2023-02-23T11:29:00.001Z,60.30
2023-02-23T11:29:59.967Z,62.20
2023-02-23T11:31:00.067Z,61.00
2023-02-23T11:32:00.125Z,61.80
2023-02-23T11:32:59.892Z,63.70
2023-02-23T11:33:59.866Z,59.60
2023-02-23T11:34:59.836Z,61.20
2023-02-23T11:35:59.828Z,56.50
2023-02-23T11:36:59.787Z,60.20
2023-02-23T11:37:59.771Z,56.20
2023-02-23T11:38:59.776Z,62.60
2023-02-23T11:39:59.723Z,58.50
2023-02-23T11:40:59.693Z,58.40
2023-02-23T11:41:59.663Z,55.90
2023-02-23T11:42:59.639Z,55.30
2023-02-23T11:43:59.620Z,56.40
2023-02-23T11:44:59.581Z,53.20
2023-02-23T11:45:59.652Z,50.30
2023-02-23T11:46:59.569Z,52.50
2023-02-23T11:47:59.508Z,59.10
2023-02-23T11:48:59.501Z,55.20
2023-02-23T11:49:59.460Z,54.10
2023-02-23T11:50:59.429Z,54.70
2023-02-23T11:51:59.421Z,53.10
2023-02-23T11:52:59.387Z,50.70
2023-02-23T11:53:59.365Z,53.00
2023-02-23T11:54:59.369Z,52.60
2023-02-23T11:55:59.335Z,53.00
2023-02-23T11:56:59.276Z,54.40
2023-02-23T11:57:59.269Z,54.00
2023-02-23T11:58:59.234Z,54.10
2023-02-23T11:59:59.219Z,49.60
2023-02-23T12:00:59.183Z,49.40
2023-02-23T12:01:59.166Z,47.70
2023-02-23T12:02:59.215Z,47.70
2023-02-23T12:03:59.109Z,52.00
2023-02-23T12:05:01.323Z,49.20
2023-02-23T12:05:59.063Z,44.50
2023-02-23T12:06:59.030Z,49.00
2023-02-23T12:07:59.064Z,49.00
2023-02-23T12:08:58.988Z,51.70
2023-02-23T12:09:58.952Z,48.30
2023-02-23T12:10:59.057Z,48.40
2023-02-23T12:11:59.537Z,48.20
2023-02-23T12:12:58.892Z,44.80
2023-02-23T12:13:58.850Z,48.20
2023-02-23T12:14:58.826Z,43.80
2023-02-23T12:15:58.810Z,48.50
2023-02-23T12:18:06.342Z,50.10
2023-02-23T12:19:06.306Z,47.50
2023-02-23T12:20:06.295Z,46.30
2023-02-23T12:21:06.266Z,48.80
2023-02-23T12:22:53.772Z,51.80
2023-02-23T12:23:53.744Z,51.70
2023-02-23T12:24:53.714Z,57.60
2023-02-23T12:25:53.695Z,50.80
2023-02-23T12:26:53.722Z,47.10
2023-02-23T12:27:53.646Z,47.10
2023-02-23T12:28:53.620Z,47.10
2023-02-23T12:29:53.605Z,49.60
2023-02-23T12:30:53.592Z,47.80
2023-02-23T12:31:53.703Z,50.40
2023-02-23T12:32:53.506Z,45.30
2023-02-23T12:33:53.489Z,45.80
2023-02-23T12:34:53.460Z,44.90
2023-02-23T12:35:53.434Z,45.50
2023-02-23T12:36:53.409Z,42.20
2023-02-23T12:37:53.384Z,43.00
2023-02-23T12:38:53.358Z,40.00
2023-02-23T12:39:53.336Z,39.80
2023-02-23T12:40:53.309Z,41.60
2023-02-23T12:41:53.285Z,44.50
2023-02-23T12:42:53.270Z,45.90
2023-02-23T12:43:53.230Z,43.40
2023-02-23T12:44:53.208Z,40.00
2023-02-23T12:45:53.323Z,41.20
2023-02-23T12:46:53.155Z,40.70
2023-02-23T12:47:53.131Z,44.70
2023-02-23T12:48:53.115Z,45.70